createdAt,value
2023-02-22T00:00:19.845Z,52.94
2023-02-22T00:02:32.641Z,52.91
2023-02-22T00:04:35.731Z,52.94
2023-02-22T00:06:38.134Z,52.58
2023-02-22T00:08:40.539Z,52.54
2023-02-22T00:10:43.087Z,52.82
2023-02-22T00:12:45.053Z,52.94
2023-02-22T00:14:47.140Z,52.82
2023-02-22T00:16:50.767Z,52.80
2023-02-22T00:18:55.087Z,53.12
2023-02-22T00:21:02.194Z,52.94
2023-02-22T00:23:07.263Z,53.18
2023-02-22T00:25:10.245Z,53.02
2023-02-22T00:27:12.215Z,53.03
2023-02-22T00:29:14.312Z,52.73
2023-02-22T00:31:17.099Z,52.71
2023-02-22T00:33:22.694Z,52.71
2023-02-22T00:35:28.592Z,52.92
2023-02-22T00:37:33.678Z,52.78
2023-02-22T00:39:35.489Z,52.94
2023-02-22T00:41:37.692Z,53.02
2023-02-22T00:43:39.756Z,53.11
2023-02-22T00:45:42.740Z,52.97
2023-02-22T00:47:44.903Z,53.01
2023-02-22T00:49:49.953Z,53.09
2023-02-22T00:51:52.433Z,52.94
2023-02-22T00:53:54.533Z,53.09
2023-02-22T00:55:56.705Z,53.85
2023-02-22T00:58:00.148Z,54.05
2023-02-22T01:00:12.814Z,53.84
2023-02-22T01:02:14.962Z,53.75
2023-02-22T01:04:18.703Z,53.25
2023-02-22T01:06:21.107Z,53.39
2023-02-22T01:08:25.294Z,53.25
2023-02-22T01:10:29.910Z,53.66
2023-02-22T01:12:32.136Z,53.63
2023-02-22T01:14:34.305Z,53.72
2023-02-22T01:16:37.054Z,53.25
2023-02-22T01:18:39.387Z,53.46
2023-02-22T01:20:41.625Z,53.48
2023-02-22T01:22:47.408Z,54.17
2023-02-22T01:24:51.113Z,53.67
2023-02-22T01:26:53.418Z,53.76
2023-02-22T01:28:55.596Z,53.73
2023-02-22T01:30:57.984Z,53.68
2023-02-22T01:33:04.087Z,53.74
2023-02-22T01:35:10.155Z,53.68
2023-02-22T01:37:13.800Z,53.96
2023-02-22T01:39:18.036Z,53.54
2023-02-22T01:41:20.625Z,53.71
2023-02-22T01:43:31.275Z,53.92
2023-02-22T01:45:33.310Z,53.33
2023-02-22T01:47:35.364Z,53.51
2023-02-22T01:49:43.370Z,53.63
2023-02-22T01:51:49.353Z,53.52
2023-02-22T01:53:54.279Z,53.33
2023-02-22T01:55:57.934Z,53.90
2023-02-22T01:58:00.328Z,53.85
2023-02-22T02:00:11.141Z,53.93
2023-02-22T02:02:19.436Z,53.66
2023-02-22T02:04:25.677Z,54.01
2023-02-22T02:06:33.899Z,53.75
2023-02-22T02:08:51.710Z,53.45
2023-02-22T02:10:57.876Z,53.52
2023-02-22T02:13:00.173Z,53.94
2023-02-22T02:15:29.147Z,53.89
2023-02-22T02:17:31.106Z,53.95
2023-02-22T02:19:57.330Z,54.45
2023-02-22T02:22:17.587Z,54.48
2023-02-22T02:24:33.723Z,55.43
2023-02-22T02:27:06.534Z,55.03
2023-02-22T02:29:44.378Z,56.72
2023-02-22T02:32:12.226Z,56.75
2023-02-22T02:34:17.197Z,56.78
2023-02-22T02:36:36.420Z,56.61
2023-02-22T02:39:01.813Z,56.77
2023-02-22T02:41:13.532Z,56.75
2023-02-22T02:43:27.963Z,56.70
2023-02-22T02:45:40.234Z,57.11
2023-02-22T02:47:49.710Z,56.75
2023-02-22T02:50:08.346Z,56.52
2023-02-22T02:52:13.430Z,55.89
2023-02-22T02:54:16.047Z,56.07
2023-02-22T02:56:19.047Z,56.62
2023-02-22T02:58:24.034Z,56.13
2023-02-22T03:00:39.511Z,56.58
2023-02-22T03:03:14.007Z,56.34
2023-02-22T03:05:24.771Z,56.32
2023-02-22T03:07:40.457Z,56.97
2023-02-22T03:10:01.279Z,56.94
2023-02-22T03:12:38.117Z,56.70
2023-02-22T03:15:05.293Z,56.88
2023-02-22T03:17:30.346Z,57.31
2023-02-22T03:19:49.016Z,57.89
2023-02-22T03:21:56.859Z,57.01
2023-02-22T03:24:10.071Z,57.39
2023-02-22T03:26:19.731Z,57.13
2023-02-22T03:28:29.510Z,57.62
2023-02-22T03:30:53.380Z,57.29
2023-02-22T03:33:40.590Z,57.62
2023-02-22T03:35:56.978Z,57.61
2023-02-22T03:38:04.155Z,57.83
2023-02-22T03:40:16.899Z,57.07
2023-02-22T03:42:26.419Z,57.91
2023-02-22T03:44:31.323Z,57.58
2023-02-22T03:46:36.218Z,57.13
2023-02-22T03:48:58.050Z,58.02
2023-02-22T03:51:06.103Z,57.50
2023-02-22T03:53:10.717Z,57.25
2023-02-22T03:55:17.851Z,57.48
2023-02-22T03:57:36.465Z,58.19
2023-02-22T03:59:41.204Z,56.97
2023-02-22T04:01:43.544Z,57.30
2023-02-22T04:03:46.073Z,57.46
2023-02-22T04:05:49.840Z,57.55
2023-02-22T04:07:56.960Z,58.18
2023-02-22T04:09:59.164Z,57.51
2023-02-22T04:12:01.290Z,57.89
2023-02-22T04:14:06.185Z,57.91
2023-02-22T04:16:08.266Z,58.37
2023-02-22T04:18:11.316Z,58.55
2023-02-22T04:20:14.512Z,58.32
2023-02-22T04:22:24.148Z,57.90
2023-02-22T04:24:30.434Z,58.21
2023-02-22T04:26:32.906Z,57.89
2023-02-22T04:28:37.077Z,57.81
2023-02-22T04:30:49.019Z,57.85
2023-02-22T04:32:53.087Z,57.81
2023-02-22T04:34:57.357Z,58.20
2023-02-22T04:37:00.138Z,58.07
2023-02-22T04:39:02.693Z,58.27
2023-02-22T04:41:05.850Z,58.55
2023-02-22T04:43:08.302Z,58.73
2023-02-22T04:45:13.724Z,58.65
2023-02-22T04:47:15.875Z,59.25
2023-02-22T04:49:17.784Z,58.56
2023-02-22T04:51:21.768Z,58.47
2023-02-22T04:53:38.281Z,58.32
2023-02-22T04:55:41.864Z,58.50
2023-02-22T04:57:44.227Z,58.16
2023-02-22T04:59:46.545Z,58.59
2023-02-22T05:01:49.539Z,58.27
2023-02-22T05:03:51.693Z,59.14
2023-02-22T05:05:53.684Z,58.80
2023-02-22T05:07:55.943Z,59.23
2023-02-22T05:09:57.993Z,59.51
2023-02-22T05:12:00.310Z,60.10
2023-02-22T05:14:02.301Z,60.37
2023-02-22T05:16:04.860Z,60.03
2023-02-22T05:18:06.956Z,60.10
2023-02-22T05:20:19.527Z,60.17
2023-02-22T05:22:21.732Z,59.97
2023-02-22T05:24:23.908Z,59.45
2023-02-22T05:26:27.453Z,59.74
2023-02-22T05:28:30.032Z,59.90
2023-02-22T05:30:34.594Z,59.61
2023-02-22T05:32:36.704Z,59.45
2023-02-22T05:34:39.369Z,59.30
2023-02-22T05:36:41.780Z,59.94
2023-02-22T05:38:44.901Z,59.25
2023-02-22T05:40:47.181Z,59.79
2023-02-22T05:42:51.178Z,59.90
2023-02-22T05:44:53.437Z,59.51
2023-02-22T05:46:55.489Z,59.25
2023-02-22T05:48:59.872Z,59.47
2023-02-22T05:51:01.917Z,59.85
2023-02-22T05:53:05.691Z,59.52
2023-02-22T05:55:09.658Z,59.58
2023-02-22T05:57:11.837Z,59.80
2023-02-22T05:59:13.880Z,59.96
2023-02-22T06:01:16.545Z,59.73
2023-02-22T06:03:19.000Z,59.87
2023-02-22T06:05:22.328Z,59.67
2023-02-22T06:07:24.552Z,59.77
2023-02-22T06:09:26.666Z,59.92
2023-02-22T06:11:28.822Z,59.54
2023-02-22T06:13:31.655Z,59.74
2023-02-22T06:15:33.954Z,59.64
2023-02-22T06:17:36.712Z,60.44
2023-02-22T06:19:39.235Z,59.92
2023-02-22T06:21:52.143Z,59.87
2023-02-22T06:23:54.412Z,58.36
2023-02-22T06:25:56.349Z,58.48
2023-02-22T06:27:59.945Z,57.75
2023-02-22T06:30:03.177Z,57.76
2023-02-22T06:32:05.446Z,57.61
2023-02-22T06:34:07.554Z,57.54
2023-02-22T06:36:09.908Z,57.21
2023-02-22T06:38:11.947Z,56.30
2023-02-22T06:40:15.109Z,56.48
2023-02-22T06:42:17.247Z,55.65
2023-02-22T06:44:19.386Z,55.39
2023-02-22T06:46:21.993Z,55.31
2023-02-22T06:48:24.142Z,55.43
2023-02-22T06:50:30.486Z,54.80
2023-02-22T06:52:32.612Z,54.37
2023-02-22T06:54:34.661Z,54.33
2023-02-22T06:56:36.829Z,53.95
2023-02-22T06:58:38.848Z,54.00
2023-02-22T07:00:41.617Z,53.58
2023-02-22T07:02:43.924Z,53.40
2023-02-22T07:04:46.156Z,53.06
2023-02-22T07:06:49.877Z,53.21
2023-02-22T07:08:52.030Z,53.04
2023-02-22T07:10:54.322Z,52.57
2023-02-22T07:12:56.695Z,52.17
2023-02-22T07:14:58.739Z,52.36
2023-02-22T07:17:01.064Z,52.17
2023-02-22T07:19:03.397Z,51.94
2023-02-22T07:21:06.477Z,51.32
2023-02-22T07:23:09.119Z,51.49
2023-02-22T07:25:14.357Z,51.71
2023-02-22T07:27:17.352Z,51.21
2023-02-22T07:29:19.504Z,50.71
2023-02-22T07:31:22.055Z,50.53
2023-02-22T07:33:24.270Z,49.29
2023-02-22T07:35:31.680Z,47.80
2023-02-22T07:37:33.978Z,48.86
2023-02-22T07:39:38.064Z,48.21
2023-02-22T07:41:40.491Z,48.82
2023-02-22T07:43:56.625Z,48.08
2023-02-22T07:46:00.701Z,45.81
2023-02-22T07:48:04.575Z,46.71
2023-02-22T07:50:06.835Z,46.43
2023-02-22T07:52:08.886Z,45.35
2023-02-22T07:54:11.358Z,45.39
2023-02-22T07:56:13.404Z,45.58
2023-02-22T07:58:15.985Z,44.39
2023-02-22T08:00:24.399Z,43.42
2023-02-22T08:02:26.812Z,44.44
2023-02-22T08:04:31.814Z,44.61
2023-02-22T08:06:34.252Z,44.37
2023-02-22T08:08:36.494Z,44.20
2023-02-22T08:10:38.518Z,44.94
2023-02-22T08:12:41.392Z,44.39
2023-02-22T08:14:43.352Z,44.00
2023-02-22T08:16:45.439Z,44.24
2023-02-22T08:18:47.731Z,43.76
2023-02-22T08:20:52.243Z,43.43
2023-02-22T08:22:57.112Z,41.90
2023-02-22T08:24:59.218Z,43.45
2023-02-22T08:27:01.779Z,43.62
2023-02-22T08:29:03.949Z,43.15
2023-02-22T08:31:07.823Z,43.75
2023-02-22T08:33:11.165Z,43.28
2023-02-22T08:35:14.782Z,43.48
2023-02-22T08:37:18.257Z,43.17
2023-02-22T08:39:20.610Z,41.37
2023-02-22T08:41:22.757Z,41.46
2023-02-22T08:43:24.983Z,41.30
2023-02-22T08:45:27.457Z,42.05
2023-02-22T08:47:29.563Z,40.74
2023-02-22T08:49:32.227Z,42.20
2023-02-22T08:51:37.463Z,40.04
2023-02-22T08:53:39.569Z,41.90
2023-02-22T08:55:42.270Z,40.78
2023-02-22T08:57:44.390Z,41.49
2023-02-22T08:59:46.527Z,40.88
2023-02-22T09:01:48.736Z,41.12
2023-02-22T09:03:52.149Z,41.29
2023-02-22T09:05:54.777Z,40.77
2023-02-22T09:07:57.349Z,41.14
2023-02-22T09:09:59.602Z,40.45
2023-02-22T09:12:02.558Z,40.57
2023-02-22T09:14:04.855Z,40.42
2023-02-22T09:16:07.277Z,41.40
2023-02-22T09:18:12.525Z,39.84
2023-02-22T09:20:18.150Z,40.32
2023-02-22T09:22:20.080Z,39.93
2023-02-22T09:24:23.087Z,40.35
2023-02-22T09:26:25.174Z,40.04
2023-02-22T09:28:29.192Z,39.38
2023-02-22T09:30:36.155Z,38.81
2023-02-22T09:32:38.534Z,39.48
2023-02-22T09:34:45.987Z,40.03
2023-02-22T09:36:49.941Z,39.61
2023-02-22T09:38:52.646Z,39.31
2023-02-22T09:41:14.318Z,37.17
2023-02-22T09:43:50.516Z,36.93
2023-02-22T09:45:56.059Z,37.71
2023-02-22T09:48:15.191Z,38.91
2023-02-22T09:50:28.830Z,38.37
2023-02-22T09:52:41.587Z,37.93
2023-02-22T09:54:52.287Z,39.17
2023-02-22T09:56:58.604Z,38.96
2023-02-22T09:59:07.290Z,39.50
2023-02-22T10:01:29.770Z,37.70
2023-02-22T10:03:40.647Z,38.39
2023-02-22T10:05:48.382Z,38.53
2023-02-22T10:08:06.158Z,37.16
2023-02-22T10:10:17.506Z,38.03
2023-02-22T10:12:30.243Z,38.34
2023-02-22T10:14:49.109Z,38.77
2023-02-22T10:17:15.747Z,38.54
2023-02-22T10:19:41.377Z,38.50
2023-02-22T10:22:23.044Z,38.05
2023-02-22T10:24:57.224Z,38.58
2023-02-22T10:27:01.105Z,38.42
2023-02-22T10:29:07.255Z,38.67
2023-02-22T10:31:17.347Z,38.00
2023-02-22T10:33:27.257Z,39.02
2023-02-22T10:35:41.414Z,38.08
2023-02-22T10:37:44.512Z,38.90
2023-02-22T10:39:49.881Z,38.10
2023-02-22T10:41:56.000Z,38.10
2023-02-22T10:43:58.971Z,38.27
2023-02-22T10:46:05.815Z,38.52
2023-02-22T10:48:13.096Z,38.23
2023-02-22T10:50:15.939Z,39.14
2023-02-22T10:52:27.458Z,38.68
2023-02-22T10:54:40.562Z,38.66
2023-02-22T10:56:49.106Z,39.38
2023-02-22T10:58:57.595Z,38.92
2023-02-22T11:00:59.947Z,39.56
2023-02-22T11:03:06.158Z,38.09
2023-02-22T11:05:43.344Z,38.17
2023-02-22T11:07:45.349Z,39.21
2023-02-22T11:10:12.017Z,37.84
2023-02-22T11:12:20.038Z,37.93
2023-02-22T11:14:31.311Z,37.29
2023-02-22T11:16:38.304Z,37.95
2023-02-22T11:18:40.538Z,38.76
2023-02-22T11:20:42.867Z,38.59
2023-02-22T11:22:44.968Z,39.07
2023-02-22T11:24:50.983Z,39.08
2023-02-22T11:27:01.716Z,39.20
2023-02-22T11:29:19.337Z,38.73
2023-02-22T11:31:27.524Z,39.30
2023-02-22T11:33:30.663Z,39.13
2023-02-22T11:35:37.404Z,38.93
2023-02-22T11:37:39.452Z,38.80
2023-02-22T11:39:43.876Z,39.09
2023-02-22T11:41:49.395Z,38.38
2023-02-22T11:43:52.792Z,39.06
2023-02-22T11:46:12.186Z,37.95
2023-02-22T11:48:21.380Z,39.01
2023-02-22T11:50:38.689Z,38.46
2023-02-22T11:52:50.969Z,38.38
2023-02-22T11:55:29.743Z,38.41
2023-02-22T11:58:21.300Z,38.37
2023-02-22T12:00:35.879Z,38.22
2023-02-22T12:03:13.525Z,37.46
2023-02-22T12:06:02.400Z,38.07
2023-02-22T12:08:20.779Z,38.16
2023-02-22T12:10:38.776Z,38.16
2023-02-22T12:12:54.924Z,38.09
2023-02-22T12:15:09.854Z,37.42
2023-02-22T12:17:23.830Z,37.53
2023-02-22T12:19:36.315Z,38.02
2023-02-22T12:21:45.354Z,37.83
2023-02-22T12:24:05.775Z,38.10
2023-02-22T12:26:25.786Z,36.63
2023-02-22T12:28:27.778Z,38.07
2023-02-22T12:30:36.108Z,38.24
2023-02-22T12:32:44.605Z,37.93
2023-02-22T12:34:54.961Z,38.15
2023-02-22T12:37:04.804Z,38.05
2023-02-22T12:39:25.640Z,37.52
2023-02-22T12:41:39.186Z,37.47
2023-02-22T12:43:41.869Z,38.06
2023-02-22T12:46:06.956Z,37.54
2023-02-22T12:48:36.575Z,37.78
2023-02-22T12:50:39.010Z,38.45
2023-02-22T12:52:53.960Z,38.44
2023-02-22T12:55:12.463Z,38.90
2023-02-22T12:57:24.964Z,38.44
2023-02-22T12:59:34.071Z,38.20
2023-02-22T13:01:44.507Z,37.71
2023-02-22T13:03:49.417Z,39.28
2023-02-22T13:06:28.545Z,37.34
2023-02-22T13:08:41.018Z,37.58
2023-02-22T13:11:21.601Z,36.63
2023-02-22T13:13:44.118Z,36.57
2023-02-22T13:15:55.087Z,36.98
2023-02-22T13:18:17.058Z,37.63
2023-02-22T13:20:36.642Z,37.34
2023-02-22T13:22:48.122Z,37.40
2023-02-22T13:25:14.495Z,37.09
2023-02-22T13:27:23.232Z,37.77
2023-02-22T13:29:33.889Z,38.17
2023-02-22T13:31:54.859Z,37.06
2023-02-22T13:34:16.687Z,37.93
2023-02-22T13:36:38.933Z,37.92
2023-02-22T13:38:49.723Z,37.41
2023-02-22T13:41:00.936Z,38.24
2023-02-22T13:43:34.176Z,37.38
2023-02-22T13:46:02.482Z,36.67
2023-02-22T13:48:35.405Z,37.44
2023-02-22T13:51:06.885Z,37.94
2023-02-22T13:53:17.312Z,38.30
2023-02-22T13:55:41.250Z,38.04
2023-02-22T13:57:50.051Z,38.08
2023-02-22T14:00:40.048Z,39.14
2023-02-22T14:03:14.326Z,38.45
2023-02-22T14:05:41.681Z,37.12
2023-02-22T14:07:48.733Z,37.28
2023-02-22T14:09:56.299Z,37.45
2023-02-22T14:11:58.616Z,37.91
2023-02-22T14:14:03.395Z,38.30
2023-02-22T14:16:08.629Z,38.16
2023-02-22T14:18:17.271Z,37.78
2023-02-22T14:20:37.041Z,38.46
2023-02-22T14:22:39.445Z,38.78
2023-02-22T14:24:51.306Z,37.50
2023-02-22T14:27:02.146Z,38.19
2023-02-22T14:29:08.143Z,37.51
2023-02-22T14:31:33.310Z,38.51
2023-02-22T14:33:56.463Z,38.87
2023-02-22T14:35:58.759Z,38.34
2023-02-22T14:38:02.610Z,38.21
2023-02-22T14:40:18.797Z,38.00
2023-02-22T14:42:41.007Z,38.77
2023-02-22T14:45:01.390Z,38.51
2023-02-22T14:47:06.900Z,39.20
2023-02-22T14:49:16.916Z,38.80
2023-02-22T14:51:36.020Z,40.21
2023-02-22T14:53:44.572Z,39.69
2023-02-22T14:56:08.879Z,39.49
2023-02-22T14:58:19.053Z,39.17
2023-02-22T15:00:30.986Z,39.16
2023-02-22T15:02:41.674Z,39.07
2023-02-22T15:04:52.109Z,39.33
2023-02-22T15:06:59.071Z,39.35
2023-02-22T15:09:14.932Z,40.11
2023-02-22T15:11:31.211Z,39.89
2023-02-22T15:13:33.619Z,39.01
2023-02-22T15:15:49.351Z,40.09
2023-02-22T15:17:58.720Z,39.45
2023-02-22T15:20:01.252Z,40.07
2023-02-22T15:22:04.231Z,39.74
2023-02-22T15:24:08.253Z,39.80
2023-02-22T15:26:29.176Z,40.41
2023-02-22T15:28:32.000Z,40.42
2023-02-22T15:30:35.878Z,40.15
2023-02-22T15:32:53.264Z,39.97
2023-02-22T15:35:37.792Z,40.39
2023-02-22T15:37:40.226Z,40.67
2023-02-22T15:39:44.200Z,40.80
2023-02-22T15:41:46.696Z,40.84
2023-02-22T15:44:23.182Z,41.01
2023-02-22T15:46:26.347Z,40.88
2023-02-22T15:48:31.959Z,40.70
2023-02-22T15:50:35.673Z,40.84
2023-02-22T15:52:37.814Z,41.11
2023-02-22T15:54:50.525Z,41.09
2023-02-22T15:56:57.035Z,40.97
2023-02-22T15:59:20.848Z,41.07
2023-02-22T16:01:22.827Z,41.27
2023-02-22T16:03:29.559Z,41.31
2023-02-22T16:05:55.746Z,41.49
2023-02-22T16:07:58.588Z,41.49
2023-02-22T16:10:08.238Z,41.30
2023-02-22T16:12:23.181Z,41.58
2023-02-22T16:14:27.098Z,41.61
2023-02-22T16:16:41.820Z,41.81
2023-02-22T16:18:44.275Z,41.59
2023-02-22T16:20:57.605Z,41.57
2023-02-22T16:22:59.741Z,41.68
2023-02-22T16:25:18.912Z,41.90
2023-02-22T16:27:24.814Z,41.67
2023-02-22T16:29:27.146Z,42.04
2023-02-22T16:31:34.035Z,42.00
2023-02-22T16:33:39.995Z,41.79
2023-02-22T16:35:52.161Z,42.06
2023-02-22T16:38:02.868Z,42.21
2023-02-22T16:40:14.084Z,41.77
2023-02-22T16:42:22.888Z,41.89
2023-02-22T16:44:25.887Z,41.71
2023-02-22T16:46:28.057Z,41.78
2023-02-22T16:48:38.353Z,42.10
2023-02-22T16:50:40.957Z,41.83
2023-02-22T16:52:43.159Z,42.16
2023-02-22T16:54:46.444Z,42.21
2023-02-22T16:56:48.681Z,42.35
2023-02-22T16:58:50.923Z,41.98
2023-02-22T17:00:52.948Z,42.15
2023-02-22T17:02:55.011Z,42.21
2023-02-22T17:04:57.388Z,42.04
2023-02-22T17:07:02.582Z,42.31
2023-02-22T17:09:05.921Z,42.19
2023-02-22T17:11:10.333Z,42.34
2023-02-22T17:13:23.601Z,42.07
2023-02-22T17:15:34.825Z,42.12
2023-02-22T17:17:36.878Z,42.57
2023-02-22T17:19:39.203Z,42.24
2023-02-22T17:21:41.349Z,42.45
2023-02-22T17:23:46.265Z,42.33
2023-02-22T17:25:53.747Z,42.43
2023-02-22T17:27:56.123Z,42.23
2023-02-22T17:29:58.086Z,42.13
2023-02-22T17:32:00.424Z,42.62
2023-02-22T17:34:05.091Z,42.36
2023-02-22T17:36:07.607Z,42.62
2023-02-22T17:38:10.546Z,42.34
2023-02-22T17:40:14.870Z,42.60
2023-02-22T17:42:17.015Z,42.27
2023-02-22T17:44:19.111Z,42.77
2023-02-22T17:46:22.496Z,42.30
2023-02-22T17:48:26.160Z,42.50
2023-02-22T17:50:28.347Z,42.42
2023-02-22T17:52:30.582Z,42.47
2023-02-22T17:54:34.390Z,42.52
2023-02-22T17:56:36.837Z,42.69
2023-02-22T17:58:39.788Z,42.47
2023-02-22T18:00:45.651Z,42.58
2023-02-22T18:02:48.155Z,42.58
2023-02-22T18:04:50.258Z,42.91
2023-02-22T18:06:52.901Z,42.63
2023-02-22T18:08:57.736Z,42.76
2023-02-22T18:11:05.319Z,42.98
2023-02-22T18:13:07.517Z,43.13
2023-02-22T18:15:17.365Z,43.01
2023-02-22T18:17:19.371Z,43.00
2023-02-22T18:19:23.357Z,43.43
2023-02-22T18:21:27.003Z,43.61
2023-02-22T18:23:31.915Z,43.93
2023-02-22T18:25:36.638Z,43.76
2023-02-22T18:27:38.852Z,43.74
2023-02-22T18:29:42.285Z,43.81
2023-02-22T18:31:45.617Z,44.12
2023-02-22T18:33:50.491Z,44.07
2023-02-22T18:35:52.785Z,44.34
2023-02-22T18:37:54.778Z,44.10
2023-02-22T18:39:58.189Z,43.93
2023-02-22T18:42:00.241Z,44.16
2023-02-22T18:44:03.445Z,44.15
2023-02-22T18:46:11.561Z,44.19
2023-02-22T18:48:13.604Z,44.10
2023-02-22T18:50:19.245Z,44.36
2023-02-22T18:52:24.140Z,44.49
2023-02-22T18:54:26.769Z,44.25
2023-02-22T18:56:30.389Z,44.60
2023-02-22T18:58:32.957Z,44.33
2023-02-22T19:00:38.535Z,44.29
2023-02-22T19:02:43.661Z,44.58
2023-02-22T19:04:45.676Z,44.51
2023-02-22T19:06:50.892Z,44.68
2023-02-22T19:08:53.674Z,44.42
2023-02-22T19:10:55.831Z,44.41
2023-02-22T19:12:57.944Z,44.51
2023-02-22T19:15:00.145Z,44.51
2023-02-22T19:17:02.954Z,44.31
2023-02-22T19:19:05.800Z,44.29
2023-02-22T19:21:10.890Z,44.57
2023-02-22T19:23:12.973Z,45.09
2023-02-22T19:25:15.176Z,45.00
2023-02-22T19:27:17.628Z,45.16
2023-02-22T19:29:23.744Z,45.16
2023-02-22T19:31:31.586Z,45.12
2023-02-22T19:33:33.619Z,45.27
2023-02-22T19:35:36.358Z,45.63
2023-02-22T19:37:38.366Z,45.16
2023-02-22T19:39:42.461Z,45.07
2023-02-22T19:41:44.800Z,44.70
2023-02-22T19:43:48.667Z,44.95
2023-02-22T19:45:50.740Z,44.96
2023-02-22T19:47:56.062Z,45.17
2023-02-22T19:49:59.797Z,45.42
2023-02-22T19:52:08.349Z,45.44
2023-02-22T19:54:17.441Z,45.11
2023-02-22T19:56:27.292Z,45.26
2023-02-22T19:58:32.316Z,45.48
2023-02-22T20:00:35.750Z,45.39
2023-02-22T20:02:41.895Z,45.28
2023-02-22T20:04:43.998Z,45.44
2023-02-22T20:06:47.450Z,45.16
2023-02-22T20:08:51.152Z,45.39
2023-02-22T20:10:58.354Z,45.55
2023-02-22T20:13:01.439Z,45.66
2023-02-22T20:15:03.548Z,45.50
2023-02-22T20:17:07.335Z,45.46
2023-02-22T20:19:09.292Z,45.60
2023-02-22T20:21:18.721Z,45.79
2023-02-22T20:23:20.982Z,45.83
2023-02-22T20:25:23.107Z,45.63
2023-02-22T20:27:25.093Z,45.81
2023-02-22T20:29:30.280Z,46.05
2023-02-22T20:31:33.117Z,45.75
2023-02-22T20:33:41.802Z,45.85
2023-02-22T20:35:44.092Z,45.82
2023-02-22T20:37:46.010Z,45.77
2023-02-22T20:39:48.122Z,46.23
2023-02-22T20:41:50.309Z,45.97
2023-02-22T20:43:53.662Z,46.28
2023-02-22T20:45:55.859Z,46.05
2023-02-22T20:48:00.144Z,46.15
2023-02-22T20:50:02.323Z,46.00
2023-02-22T20:52:05.072Z,46.51
2023-02-22T20:54:08.735Z,46.01
2023-02-22T20:56:16.143Z,46.47
2023-02-22T20:58:23.212Z,47.35
2023-02-22T21:00:26.642Z,46.97
2023-02-22T21:02:30.435Z,46.84
2023-02-22T21:04:33.412Z,47.12
2023-02-22T21:06:36.914Z,46.62
2023-02-22T21:08:38.757Z,47.16
2023-02-22T21:10:42.580Z,46.37
2023-02-22T21:12:47.941Z,46.58
2023-02-22T21:14:50.099Z,46.67
2023-02-22T21:16:52.796Z,46.70
2023-02-22T21:18:58.894Z,46.85
2023-02-22T21:21:12.607Z,46.75
2023-02-22T21:23:15.998Z,46.99
2023-02-22T21:25:18.502Z,46.71
2023-02-22T21:27:20.775Z,47.11
2023-02-22T21:29:23.073Z,47.38
2023-02-22T21:31:25.393Z,47.46
2023-02-22T21:33:28.948Z,47.48
2023-02-22T21:35:35.363Z,47.09
2023-02-22T21:37:40.341Z,47.26
2023-02-22T21:39:47.790Z,47.12
2023-02-22T21:41:52.331Z,46.86
2023-02-22T21:43:55.636Z,47.18
2023-02-22T21:46:03.030Z,47.42
2023-02-22T21:48:05.926Z,47.21
2023-02-22T21:50:10.370Z,47.33
2023-02-22T21:52:12.341Z,47.45
2023-02-22T21:54:17.047Z,47.21
2023-02-22T21:56:24.443Z,47.20
2023-02-22T21:58:28.212Z,47.61
2023-02-22T22:00:31.196Z,47.73
2023-02-22T22:02:33.359Z,47.57
2023-02-22T22:04:35.346Z,47.60
2023-02-22T22:06:37.626Z,47.48
2023-02-22T22:08:42.055Z,47.57
2023-02-22T22:10:44.031Z,47.64
2023-02-22T22:12:46.271Z,48.33
2023-02-22T22:14:50.396Z,47.92
2023-02-22T22:16:58.443Z,48.01
2023-02-22T22:19:00.600Z,48.30
2023-02-22T22:21:10.964Z,48.77
2023-02-22T22:23:12.961Z,48.71
2023-02-22T22:25:19.079Z,48.58
2023-02-22T22:27:21.395Z,48.91
2023-02-22T22:29:26.686Z,48.27
2023-02-22T22:31:29.229Z,48.45
2023-02-22T22:33:31.334Z,48.13
2023-02-22T22:35:33.690Z,48.12
2023-02-22T22:37:35.795Z,48.44
2023-02-22T22:39:38.698Z,48.19
2023-02-22T22:41:44.935Z,48.13
2023-02-22T22:43:47.281Z,47.93
2023-02-22T22:45:49.332Z,48.50
2023-02-22T22:47:52.279Z,48.50
2023-02-22T22:50:01.505Z,48.49
2023-02-22T22:52:03.499Z,48.26
2023-02-22T22:54:10.309Z,48.75
2023-02-22T22:56:21.198Z,49.06
2023-02-22T22:58:24.180Z,48.56
2023-02-22T23:00:37.722Z,48.92
2023-02-22T23:02:40.790Z,48.98
2023-02-22T23:04:42.725Z,48.92
2023-02-22T23:06:47.136Z,49.35
2023-02-22T23:09:00.155Z,48.91
2023-02-22T23:11:09.497Z,49.35
2023-02-22T23:13:12.824Z,48.49
2023-02-22T23:15:14.794Z,48.60
2023-02-22T23:17:31.197Z,49.03
2023-02-22T23:19:35.838Z,48.93
2023-02-22T23:21:39.115Z,48.89
2023-02-22T23:23:41.559Z,49.49
2023-02-22T23:25:49.756Z,48.78
2023-02-22T23:27:53.735Z,48.91
2023-02-22T23:29:56.041Z,49.26
2023-02-22T23:31:59.168Z,49.07
2023-02-22T23:34:06.698Z,49.26
2023-02-22T23:36:10.630Z,49.00
2023-02-22T23:38:12.688Z,48.78
2023-02-22T23:40:18.932Z,49.15
2023-02-22T23:42:23.085Z,48.83
2023-02-22T23:44:27.356Z,49.10
2023-02-22T23:46:33.029Z,48.83
2023-02-22T23:48:35.861Z,48.55
2023-02-22T23:50:37.820Z,49.27
2023-02-22T23:52:39.938Z,48.94
2023-02-22T23:54:44.216Z,49.43
2023-02-22T23:57:02.567Z,49.05
2023-02-22T23:59:11.434Z,49.52
